Time;durP1;ratioP1;P1;durP2;ratioP2;P2;SDS_P1;SDS_P2;PMS_P1;PMS_P2;Temp;Humidity;BMP_temperature;BMP_pressure;BME280_temperature;BME280_humidity;BME280_pressure;Samples;Min_cycle;Max_cycle;Signal;HPM_P1;HPM_P2
2023/03/14 00:01:20;;;;;;;;;;;11.50;99.90;;;;;;6210496;23;19900;-86
2023/03/14 00:03:45;;;;;;;;;;;11.50;99.90;;;;;;6210381;23;19907;-85
2023/03/14 00:06:11;;;;;;;;;;;11.50;99.90;;;;;;6208956;23;19908;-88
2023/03/14 00:08:37;;;;;;;;;;;11.40;99.90;;;;;;6209794;23;19907;-85
2023/03/14 00:11:06;;;;;;;;;;;11.40;99.90;;;;;;6209972;23;19900;-84
2023/03/14 00:13:32;;;;;;;;;;;11.40;99.90;;;;;;6210601;23;19912;-85
2023/03/14 00:16:01;;;;;;;;;;;11.50;99.90;;;;;;6209998;23;19970;-85
2023/03/14 00:18:27;;;;;;;;;;;11.50;99.90;;;;;;6210191;23;19907;-84
2023/03/14 00:20:52;;;;;;;;;;;11.50;99.90;;;;;;6184088;23;20237;-84
2023/03/14 00:23:18;;;;;;;;;;;11.50;99.90;;;;;;6211546;23;19946;-87
2023/03/14 00:25:44;;;;;;;;;;;11.50;99.90;;;;;;6209993;23;20222;-84
2023/03/14 00:28:09;;;;;;;;;;;11.40;99.90;;;;;;6210407;23;19900;-85
2023/03/14 00:30:36;;;;;;;;;;;11.40;99.90;;;;;;6210445;23;19900;-85
2023/03/14 00:33:02;;;;;;;;;;;11.30;99.90;;;;;;6209629;23;19914;-86
2023/03/14 00:35:27;;;;;;;;;;;11.30;99.90;;;;;;6210022;23;19900;-85
2023/03/14 00:37:53;;;;;;;;;;;11.30;99.90;;;;;;6183498;23;20276;-83
2023/03/14 00:40:18;;;;;;;;;;;11.30;99.90;;;;;;6211197;23;20244;-85
2023/03/14 00:42:44;;;;;;;;;;;11.30;99.90;;;;;;6210572;23;19954;-87
2023/03/14 00:45:10;;;;;;;;;;;11.30;99.90;;;;;;6182945;23;19907;-87
2023/03/14 00:47:35;;;;;;;;;;;11.20;99.90;;;;;;6210458;23;19904;-87
2023/03/14 00:50:01;;;;;;;;;;;11.20;99.90;;;;;;6210097;23;19926;-85
2023/03/14 00:52:26;;;;;;;;;;;11.20;99.90;;;;;;6210081;23;19970;-85
2023/03/14 00:54:52;;;;;;;;;;;11.10;99.90;;;;;;6210593;23;20329;-86
2023/03/14 00:57:18;;;;;;;;;;;11.20;99.90;;;;;;6211294;23;19899;-85
2023/03/14 00:59:43;;;;;;;;;;;11.20;99.90;;;;;;6210554;23;19907;-83
2023/03/14 01:02:09;;;;;;;;;;;11.20;99.90;;;;;;6183292;23;19907;-84
2023/03/14 01:04:34;;;;;;;;;;;11.10;99.90;;;;;;6210246;23;19959;-83
2023/03/14 01:07:00;;;;;;;;;;;11.10;99.90;;;;;;6182738;23;19900;-82
2023/03/14 01:09:25;;;;;;;;;;;10.70;99.90;;;;;;6209977;23;19935;-85
2023/03/14 01:11:51;;;;;;;;;;;10.40;99.90;;;;;;6184666;23;19935;-83
2023/03/14 01:14:16;;;;;;;;;;;10.30;99.90;;;;;;6211046;23;19911;-83
2023/03/14 01:16:42;;;;;;;;;;;10.20;99.90;;;;;;6212061;23;20231;-84
2023/03/14 01:19:07;;;;;;;;;;;10.10;99.90;;;;;;6212079;23;19908;-89
2023/03/14 01:21:34;;;;;;;;;;;9.90;99.90;;;;;;6185829;23;19911;-84
2023/03/14 01:24:00;;;;;;;;;;;9.90;99.90;;;;;;6211901;23;19954;-84
2023/03/14 01:26:26;;;;;;;;;;;9.70;99.90;;;;;;6211974;23;19903;-84
2023/03/14 01:28:53;;;;;;;;;;;9.70;99.90;;;;;;6213284;23;19982;-85
2023/03/14 01:31:19;;;;;;;;;;;9.80;99.90;;;;;;6213279;23;19900;-82
2023/03/14 01:33:45;;;;;;;;;;;9.50;99.90;;;;;;6211733;23;20240;-86
2023/03/14 01:36:11;;;;;;;;;;;9.50;99.90;;;;;;6184517;23;19899;-82
2023/03/14 01:38:37;;;;;;;;;;;9.60;99.90;;;;;;6211869;23;19935;-85
2023/03/14 01:41:02;;;;;;;;;;;9.50;99.90;;;;;;6212289;23;19907;-83
2023/03/14 01:43:28;;;;;;;;;;;9.50;99.90;;;;;;6212158;23;19899;-83
2023/03/14 01:46:06;;;;;;;;;;;9.70;99.90;;;;;;6211105;23;19954;-81
2023/03/14 01:48:44;;;;;;;;;;;9.40;99.90;;;;;;6212172;23;20326;-86
2023/03/14 01:51:16;;;;;;;;;;;9.40;99.90;;;;;;6211889;23;19900;-85
2023/03/14 01:53:42;;;;;;;;;;;9.20;99.90;;;;;;6211985;23;20026;-85
2023/03/14 01:56:11;;;;;;;;;;;9.20;99.90;;;;;;6184560;23;19900;-85
2023/03/14 01:58:37;;;;;;;;;;;9.20;99.90;;;;;;6211963;23;19903;-84
2023/03/14 02:01:03;;;;;;;;;;;9.60;99.90;;;;;;6211549;23;19900;-83
2023/03/14 02:03:30;;;;;;;;;;;9.20;99.90;;;;;;6211816;23;20387;-86
2023/03/14 02:05:59;;;;;;;;;;;9.40;99.90;;;;;;6211450;23;19922;-82
2023/03/14 02:08:26;;;;;;;;;;;9.40;99.90;;;;;;6211561;23;19947;-86
2023/03/14 02:10:51;;;;;;;;;;;9.30;99.90;;;;;;6212720;23;19900;-81
2023/03/14 02:13:18;;;;;;;;;;;9.40;99.90;;;;;;6211450;23;20447;-85
2023/03/14 02:15:44;;;;;;;;;;;9.30;99.90;;;;;;6211370;23;19904;-85
2023/03/14 02:18:10;;;;;;;;;;;9.20;99.90;;;;;;6211798;23;19954;-82
2023/03/14 02:20:47;;;;;;;;;;;9.60;99.90;;;;;;6213985;23;19907;-86
2023/03/14 02:23:15;;;;;;;;;;;9.20;99.90;;;;;;6213760;23;20485;-82
2023/03/14 02:25:46;;;;;;;;;;;9.30;99.90;;;;;;6213136;23;19900;-84
2023/03/14 02:28:12;;;;;;;;;;;9.30;99.90;;;;;;6213782;23;19908;-84
2023/03/14 02:30:38;;;;;;;;;;;9.20;99.90;;;;;;6211450;23;19900;-83
2023/03/14 02:33:07;;;;;;;;;;;9.00;99.90;;;;;;6211563;23;20303;-82
2023/03/14 02:35:39;;;;;;;;;;;9.10;99.90;;;;;;6211244;23;19903;-84
2023/03/14 02:38:17;;;;;;;;;;;9.30;99.90;;;;;;6184115;23;19975;-81
2023/03/14 02:40:42;;;;;;;;;;;9.20;99.90;;;;;;6211550;23;19904;-82
2023/03/14 02:43:08;;;;;;;;;;;9.20;99.90;;;;;;6211147;23;19907;-82
2023/03/14 02:45:35;;;;;;;;;;;9.10;99.90;;;;;;6184376;23;19907;-84
2023/03/14 02:48:04;;;;;;;;;;;9.20;99.90;;;;;;6210939;23;19907;-84
2023/03/14 02:50:33;;;;;;;;;;;9.30;99.90;;;;;;6211188;23;19931;-81
2023/03/14 02:52:58;;;;;;;;;;;9.10;99.90;;;;;;6210850;23;19908;-85
2023/03/14 02:55:25;;;;;;;;;;;9.10;99.90;;;;;;6210797;23;20313;-84
2023/03/14 02:57:52;;;;;;;;;;;9.10;99.90;;;;;;6185632;23;19971;-83
2023/03/14 03:00:18;;;;;;;;;;;9.00;99.90;;;;;;6184034;23;19915;-85
2023/03/14 03:02:43;;;;;;;;;;;9.00;99.90;;;;;;6211352;23;19903;-83
2023/03/14 03:05:09;;;;;;;;;;;9.40;99.90;;;;;;6210360;23;20018;-85
2023/03/14 03:07:34;;;;;;;;;;;9.00;99.90;;;;;;6210851;23;19906;-85
2023/03/14 03:10:00;;;;;;;;;;;9.10;99.90;;;;;;6210749;23;19900;-87
2023/03/14 03:12:25;;;;;;;;;;;8.90;99.90;;;;;;6211050;23;19907;-84
2023/03/14 03:14:51;;;;;;;;;;;8.80;99.90;;;;;;6212551;23;19904;-83
2023/03/14 03:17:16;;;;;;;;;;;8.80;99.90;;;;;;6183576;23;20313;-84
2023/03/14 03:19:42;;;;;;;;;;;8.80;99.90;;;;;;6210943;23;20277;-82
2023/03/14 03:22:08;;;;;;;;;;;8.60;99.90;;;;;;6210818;23;19899;-82
2023/03/14 03:24:33;;;;;;;;;;;9.20;99.90;;;;;;6211065;23;19899;-84
2023/03/14 03:26:59;;;;;;;;;;;8.80;99.90;;;;;;6209910;23;19900;-83
2023/03/14 03:29:24;;;;;;;;;;;8.80;99.90;;;;;;6184677;23;19982;-84
2023/03/14 03:31:50;;;;;;;;;;;8.70;99.90;;;;;;6212244;23;20305;-83
2023/03/14 03:34:15;;;;;;;;;;;8.70;99.90;;;;;;6210796;23;20283;-83
2023/03/14 03:36:41;;;;;;;;;;;8.70;99.90;;;;;;6183405;23;19900;-83
2023/03/14 03:39:06;;;;;;;;;;;8.50;99.90;;;;;;6210437;23;20237;-84
2023/03/14 03:41:32;;;;;;;;;;;8.80;99.90;;;;;;6210822;23;19904;-84
2023/03/14 03:43:58;;;;;;;;;;;8.50;99.90;;;;;;6210761;23;20372;-83
2023/03/14 03:46:24;;;;;;;;;;;8.70;99.90;;;;;;6210307;23;19900;-81
2023/03/14 03:48:56;;;;;;;;;;;8.50;99.90;;;;;;6211865;23;20325;-83
2023/03/14 03:51:22;;;;;;;;;;;8.60;99.90;;;;;;6211762;23;19904;-85
2023/03/14 03:53:48;;;;;;;;;;;8.60;99.90;;;;;;6211458;23;19994;-80
2023/03/14 03:56:13;;;;;;;;;;;8.60;99.90;;;;;;6209753;23;19903;-82
2023/03/14 03:58:39;;;;;;;;;;;8.70;99.90;;;;;;6211024;23;20333;-83
2023/03/14 04:01:05;;;;;;;;;;;8.90;99.90;;;;;;6210171;23;20288;-85
2023/03/14 04:03:31;;;;;;;;;;;8.70;99.90;;;;;;6210823;23;19899;-83
2023/03/14 04:06:05;;;;;;;;;;;8.70;99.90;;;;;;6209426;23;19900;-85
2023/03/14 04:08:30;;;;;;;;;;;8.70;99.90;;;;;;6210191;23;19900;-86
2023/03/14 04:10:57;;;;;;;;;;;9.00;99.90;;;;;;6210470;23;19907;-84
2023/03/14 04:13:23;;;;;;;;;;;8.70;99.90;;;;;;6184586;23;19947;-83
2023/03/14 04:15:48;;;;;;;;;;;8.70;99.90;;;;;;6211277;23;19900;-86
2023/03/14 04:18:14;;;;;;;;;;;9.40;99.90;;;;;;6210235;23;19962;-85
2023/03/14 04:20:39;;;;;;;;;;;8.30;99.90;;;;;;6210312;23;19935;-85
2023/03/14 04:23:05;;;;;;;;;;;8.00;99.90;;;;;;6183405;23;20288;-84
2023/03/14 04:25:30;;;;;;;;;;;8.00;99.90;;;;;;6210554;23;19900;-83
2023/03/14 04:27:56;;;;;;;;;;;8.10;99.90;;;;;;6209591;23;19903;-83
2023/03/14 04:30:21;;;;;;;;;;;8.30;99.90;;;;;;6211547;23;19922;-84
2023/03/14 04:32:47;;;;;;;;;;;8.20;99.90;;;;;;6210383;23;19910;-84
2023/03/14 04:35:12;;;;;;;;;;;8.40;99.90;;;;;;6209934;23;20535;-82
2023/03/14 04:37:38;;;;;;;;;;;7.90;99.90;;;;;;6209944;23;19906;-85
2023/03/14 04:40:06;;;;;;;;;;;7.80;99.90;;;;;;6209936;23;20347;-83
2023/03/14 04:42:31;;;;;;;;;;;7.90;99.90;;;;;;6210109;23;19907;-87
2023/03/14 04:44:57;;;;;;;;;;;8.80;99.90;;;;;;6209906;23;19899;-84
2023/03/14 04:47:23;;;;;;;;;;;8.30;99.90;;;;;;6210478;23;19900;-85
2023/03/14 04:49:48;;;;;;;;;;;8.20;99.90;;;;;;6184602;23;19907;-86
2023/03/14 04:52:14;;;;;;;;;;;8.00;99.90;;;;;;6209678;23;19900;-86
2023/03/14 04:54:39;;;;;;;;;;;8.40;99.90;;;;;;6210315;23;19915;-84
2023/03/14 04:57:05;;;;;;;;;;;8.70;99.90;;;;;;6209620;23;19900;-84
2023/03/14 04:59:30;;;;;;;;;;;8.20;99.90;;;;;;6207859;23;19908;-82
2023/03/14 05:01:56;;;;;;;;;;;7.70;99.90;;;;;;6209116;23;19900;-85
2023/03/14 05:04:21;;;;;;;;;;;7.80;99.90;;;;;;6181406;23;19906;-83
2023/03/14 05:06:47;;;;;;;;;;;7.80;99.90;;;;;;6208215;23;19922;-84
2023/03/14 05:09:12;;;;;;;;;;;7.70;99.90;;;;;;6210006;23;19907;-83
2023/03/14 05:11:38;;;;;;;;;;;8.10;99.90;;;;;;6211056;23;19978;-83
2023/03/14 05:14:03;;;;;;;;;;;7.70;99.90;;;;;;6212358;23;19915;-84
2023/03/14 05:16:28;;;;;;;;;;;8.30;99.90;;;;;;6212045;23;19943;-83
2023/03/14 05:18:54;;;;;;;;;;;7.90;99.90;;;;;;6211559;23;20321;-83
2023/03/14 05:21:19;;;;;;;;;;;8.20;99.90;;;;;;6211918;23;19904;-83
2023/03/14 05:23:45;;;;;;;;;;;7.70;99.90;;;;;;6206135;23;20321;-83
2023/03/14 05:26:10;;;;;;;;;;;7.50;99.90;;;;;;6207448;23;19900;-82
2023/03/14 05:28:36;;;;;;;;;;;7.50;99.90;;;;;;6205662;23;19961;-85
2023/03/14 05:31:05;;;;;;;;;;;8.10;99.90;;;;;;6204887;23;19911;-83
2023/03/14 05:33:31;;;;;;;;;;;7.00;99.90;;;;;;6206718;23;19915;-85
2023/03/14 05:36:02;;;;;;;;;;;8.60;99.90;;;;;;6205881;23;19904;-91
2023/03/14 05:38:28;;;;;;;;;;;6.90;99.90;;;;;;6179924;23;19911;-89
2023/03/14 05:40:53;;;;;;;;;;;7.20;99.90;;;;;;6205977;23;19903;-88
2023/03/14 05:43:19;;;;;;;;;;;7.10;99.90;;;;;;6208123;23;19900;-89
2023/03/14 05:45:44;;;;;;;;;;;7.00;99.90;;;;;;6206977;23;19946;-89
2023/03/14 05:48:10;;;;;;;;;;;7.30;99.90;;;;;;6210193;23;20355;-90
2023/03/14 05:50:36;;;;;;;;;;;6.90;99.90;;;;;;6209437;23;19903;-88
2023/03/14 05:53:01;;;;;;;;;;;9.00;99.90;;;;;;6206376;23;19914;-88
2023/03/14 05:55:27;;;;;;;;;;;6.90;99.90;;;;;;6206524;23;19958;-91
2023/03/14 05:57:53;;;;;;;;;;;7.30;99.90;;;;;;6208122;23;19908;-87
2023/03/14 06:00:19;;;;;;;;;;;7.00;99.90;;;;;;6180910;23;19906;-91
2023/03/14 06:02:45;;;;;;;;;;;6.80;99.90;;;;;;6201985;23;19939;-92
2023/03/14 06:05:11;;;;;;;;;;;6.80;99.90;;;;;;6207704;23;19911;-90
2023/03/14 06:07:36;;;;;;;;;;;6.80;99.90;;;;;;6183474;23;19904;-91
2023/03/14 06:10:02;;;;;;;;;;;6.80;99.90;;;;;;6211367;23;19904;-88
2023/03/14 06:12:28;;;;;;;;;;;6.80;99.90;;;;;;6208040;23;19904;-88
2023/03/14 06:14:53;;;;;;;;;;;6.80;99.90;;;;;;6207404;23;19903;-89
2023/03/14 06:17:19;;;;;;;;;;;7.50;99.90;;;;;;6209667;23;19987;-88
2023/03/14 06:19:44;;;;;;;;;;;6.80;99.90;;;;;;6207288;23;19943;-88
2023/03/14 06:22:10;;;;;;;;;;;8.80;99.90;;;;;;6207078;23;20240;-91
2023/03/14 06:24:35;;;;;;;;;;;6.70;99.90;;;;;;6210456;23;19904;-89
2023/03/14 06:27:02;;;;;;;;;;;6.80;99.90;;;;;;6183800;23;19900;-89
2023/03/14 06:29:28;;;;;;;;;;;6.70;99.90;;;;;;6212540;23;19907;-91
2023/03/14 06:31:54;;;;;;;;;;;6.80;99.90;;;;;;6187454;23;19943;-88
2023/03/14 06:34:20;;;;;;;;;;;6.70;99.90;;;;;;6213150;23;19915;-92
2023/03/14 06:36:45;;;;;;;;;;;6.80;99.90;;;;;;6186040;23;19899;-90
2023/03/14 06:39:11;;;;;;;;;;;6.80;99.90;;;;;;6212072;23;19907;-90
2023/03/14 06:41:36;;;;;;;;;;;8.00;99.90;;;;;;6212658;23;19907;-89
2023/03/14 06:44:02;;;;;;;;;;;8.30;99.90;;;;;;6185872;23;19908;-86
2023/03/14 06:46:27;;;;;;;;;;;6.80;99.90;;;;;;6211270;23;20256;-91
2023/03/14 06:48:53;;;;;;;;;;;8.10;99.90;;;;;;6212976;23;19946;-89
2023/03/14 06:51:19;;;;;;;;;;;7.20;99.90;;;;;;6213549;23;20309;-89
2023/03/14 06:53:44;;;;;;;;;;;8.70;99.90;;;;;;6211992;23;19914;-90
2023/03/14 06:56:10;;;;;;;;;;;6.80;99.90;;;;;;6185555;23;19900;-92
2023/03/14 06:58:36;;;;;;;;;;;6.80;99.90;;;;;;6185272;23;19899;-91
2023/03/14 07:01:01;;;;;;;;;;;6.80;99.90;;;;;;6212510;23;19900;-87
2023/03/14 07:03:27;;;;;;;;;;;6.90;99.90;;;;;;6210713;23;19900;-91
2023/03/14 07:05:52;;;;;;;;;;;6.80;99.90;;;;;;6213369;23;20244;-89
2023/03/14 07:08:18;;;;;;;;;;;6.80;99.90;;;;;;6212538;23;20304;-91
2023/03/14 07:10:43;;;;;;;;;;;7.90;99.90;;;;;;6211028;23;19942;-92
2023/03/14 07:13:09;;;;;;;;;;;6.80;99.90;;;;;;6209839;23;19903;-89
2023/03/14 07:15:34;;;;;;;;;;;6.90;99.90;;;;;;6212004;23;19983;-90
2023/03/14 07:18:00;;;;;;;;;;;6.80;99.90;;;;;;6211491;23;19979;-89
2023/03/14 07:20:25;;;;;;;;;;;6.80;99.90;;;;;;6185183;23;19914;-90
2023/03/14 07:22:51;;;;;;;;;;;6.90;99.90;;;;;;6186136;23;19987;-91
2023/03/14 07:25:16;;;;;;;;;;;6.90;99.90;;;;;;6185586;23;19904;-91
2023/03/14 07:27:47;;;;;;;;;;;6.90;99.90;;;;;;6211562;23;20002;-89
2023/03/14 07:30:13;;;;;;;;;;;7.00;99.90;;;;;;6212115;23;19978;-90
2023/03/14 07:32:39;;;;;;;;;;;6.90;99.90;;;;;;6211708;23;19899;-90
2023/03/14 07:35:04;;;;;;;;;;;6.90;99.90;;;;;;6185798;23;19904;-89
2023/03/14 07:37:30;;;;;;;;;;;6.90;99.90;;;;;;6185352;23;19907;-90
2023/03/14 07:39:56;;;;;;;;;;;6.80;99.90;;;;;;6212527;23;19922;-89
2023/03/14 07:42:21;;;;;;;;;;;6.80;99.90;;;;;;6211560;23;20245;-90
2023/03/14 07:44:47;;;;;;;;;;;6.70;99.90;;;;;;6185229;23;19899;-88
2023/03/14 07:47:12;;;;;;;;;;;8.40;99.90;;;;;;6211605;23;19904;-87
2023/03/14 07:49:38;;;;;;;;;;;6.70;99.90;;;;;;6184965;23;19907;-91
2023/03/14 07:52:03;;;;;;;;;;;6.80;99.90;;;;;;6211137;23;19908;-88
2023/03/14 07:54:29;;;;;;;;;;;7.30;99.90;;;;;;6211612;23;19908;-90
2023/03/14 07:56:54;;;;;;;;;;;7.00;99.90;;;;;;6212485;23;19899;-90
2023/03/14 07:59:20;;;;;;;;;;;7.80;99.90;;;;;;6212171;23;19900;-88
2023/03/14 08:01:46;;;;;;;;;;;7.20;99.90;;;;;;6185001;23;19904;-88
2023/03/14 08:04:11;;;;;;;;;;;7.20;99.90;;;;;;6185728;23;19899;-90
2023/03/14 08:06:37;;;;;;;;;;;7.10;99.90;;;;;;6192966;23;19900;-88
2023/03/14 08:09:03;;;;;;;;;;;8.10;99.90;;;;;;6195878;23;20226;-88
2023/03/14 08:11:28;;;;;;;;;;;7.20;99.90;;;;;;6197546;23;19907;-88
2023/03/14 08:13:54;;;;;;;;;;;7.90;99.90;;;;;;6226050;23;19915;-88
2023/03/14 08:16:19;;;;;;;;;;;8.30;99.90;;;;;;6185969;23;20309;-90
2023/03/14 08:18:46;;;;;;;;;;;7.60;99.90;;;;;;6183880;23;20217;-89
2023/03/14 08:21:11;;;;;;;;;;;7.80;99.90;;;;;;6183697;23;19957;-90
2023/03/14 08:23:37;;;;;;;;;;;8.40;99.90;;;;;;6184085;23;20325;-91
2023/03/14 08:26:03;;;;;;;;;;;7.60;99.90;;;;;;6184435;23;19910;-89
2023/03/14 08:28:30;;;;;;;;;;;7.50;99.90;;;;;;6184427;23;19904;-89
2023/03/14 08:30:56;;;;;;;;;;;7.60;99.90;;;;;;6185578;23;19900;-89
2023/03/14 08:33:22;;;;;;;;;;;7.70;99.90;;;;;;6185264;23;19939;-90
2023/03/14 08:35:47;;;;;;;;;;;7.70;99.90;;;;;;6184169;23;19911;-89
2023/03/14 08:38:13;;;;;;;;;;;8.70;99.90;;;;;;6210911;23;19903;-89
2023/03/14 08:40:38;;;;;;;;;;;7.90;99.90;;;;;;6184495;23;19927;-90
2023/03/14 08:43:04;;;;;;;;;;;8.90;99.90;;;;;;6184530;23;20333;-89
2023/03/14 08:45:29;;;;;;;;;;;8.40;99.90;;;;;;6211312;23;19919;-91
2023/03/14 08:47:55;;;;;;;;;;;8.10;99.90;;;;;;6184434;23;20343;-91
2023/03/14 08:50:23;;;;;;;;;;;8.20;99.90;;;;;;6183896;23;19928;-90
2023/03/14 08:52:48;;;;;;;;;;;8.20;99.90;;;;;;6209526;23;19900;-89
2023/03/14 08:55:14;;;;;;;;;;;9.10;99.90;;;;;;6210657;23;19915;-89
2023/03/14 08:57:39;;;;;;;;;;;8.40;99.90;;;;;;6210270;23;19900;-90
2023/03/14 09:00:10;;;;;;;;;;;8.60;99.90;;;;;;6183869;23;19986;-90
2023/03/14 09:02:35;;;;;;;;;;;8.50;99.90;;;;;;6210000;23;19915;-90
2023/03/14 09:05:02;;;;;;;;;;;8.40;99.90;;;;;;6184101;23;19899;-92
2023/03/14 09:07:27;;;;;;;;;;;9.00;99.90;;;;;;6210437;23;19923;-90
2023/03/14 09:09:53;;;;;;;;;;;8.60;99.90;;;;;;6211488;23;20240;-91
2023/03/14 09:12:18;;;;;;;;;;;8.40;99.90;;;;;;6209787;23;19906;-89
2023/03/14 09:14:44;;;;;;;;;;;8.80;99.90;;;;;;6210683;23;19931;-89
2023/03/14 09:17:09;;;;;;;;;;;8.70;99.90;;;;;;6210054;23;20340;-89
2023/03/14 09:19:35;;;;;;;;;;;9.50;99.90;;;;;;6183409;23;19912;-88
2023/03/14 09:22:00;;;;;;;;;;;9.10;99.90;;;;;;6209807;23;19907;-89
2023/03/14 09:24:26;;;;;;;;;;;9.10;99.90;;;;;;6184709;23;19900;-89
2023/03/14 09:26:55;;;;;;;;;;;9.10;99.90;;;;;;6212089;23;19907;-90
2023/03/14 09:29:21;;;;;;;;;;;9.10;99.90;;;;;;6183464;23;20313;-89
2023/03/14 09:31:46;;;;;;;;;;;9.20;99.90;;;;;;6185123;23;20071;-90
2023/03/14 09:34:12;;;;;;;;;;;8.90;99.90;;;;;;6183824;23;19919;-89
2023/03/14 09:36:39;;;;;;;;;;;9.10;99.90;;;;;;6211818;23;19904;-91
2023/03/14 09:39:05;;;;;;;;;;;9.00;99.90;;;;;;6212711;23;19900;-90
2023/03/14 09:41:32;;;;;;;;;;;9.00;99.90;;;;;;6212818;23;19900;-91
2023/03/14 09:44:01;;;;;;;;;;;9.40;99.90;;;;;;6212933;23;19907;-90
2023/03/14 09:46:27;;;;;;;;;;;9.50;99.90;;;;;;6214523;23;19982;-90
2023/03/14 09:48:52;;;;;;;;;;;9.50;99.90;;;;;;6187560;23;20372;-90
2023/03/14 09:51:21;;;;;;;;;;;9.30;99.90;;;;;;6185802;23;19983;-91
2023/03/14 09:53:48;;;;;;;;;;;9.60;99.90;;;;;;6186824;23;20388;-90
2023/03/14 09:56:17;;;;;;;;;;;9.90;99.90;;;;;;6186843;23;19904;-91
2023/03/14 09:58:44;;;;;;;;;;;9.90;99.90;;;;;;6186298;23;19946;-89
2023/03/14 10:01:13;;;;;;;;;;;9.50;99.90;;;;;;6213122;23;19900;-90
2023/03/14 10:03:41;;;;;;;;;;;9.80;99.90;;;;;;6186285;23;19903;-88
2023/03/14 10:06:11;;;;;;;;;;;10.10;99.90;;;;;;6186206;23;19950;-88
2023/03/14 10:08:39;;;;;;;;;;;9.80;99.90;;;;;;6212178;23;19906;-89
2023/03/14 10:11:04;;;;;;;;;;;9.80;99.90;;;;;;6212053;23;20313;-89
2023/03/14 10:13:30;;;;;;;;;;;9.90;99.90;;;;;;6212609;23;19986;-90
2023/03/14 10:16:01;;;;;;;;;;;9.80;99.90;;;;;;6186891;23;20222;-89
2023/03/14 10:18:28;;;;;;;;;;;9.70;99.90;;;;;;6185085;23;19974;-88
2023/03/14 10:21:02;;;;;;;;;;;9.60;99.90;;;;;;6187007;23;19931;-90
2023/03/14 10:23:28;;;;;;;;;;;9.80;99.90;;;;;;6186442;23;19900;-88
2023/03/14 10:26:03;;;;;;;;;;;10.20;99.90;;;;;;6213670;23;19899;-89
2023/03/14 10:28:31;;;;;;;;;;;10.00;99.90;;;;;;6185825;23;19900;-88
2023/03/14 10:30:57;;;;;;;;;;;10.10;99.90;;;;;;6213342;23;20325;-88
2023/03/14 10:33:24;;;;;;;;;;;10.00;99.90;;;;;;6212271;23;20336;-88
2023/03/14 10:35:55;;;;;;;;;;;10.20;99.90;;;;;;6185653;23;19910;-87
2023/03/14 10:38:23;;;;;;;;;;;10.20;99.90;;;;;;6211769;23;19904;-89
2023/03/14 10:40:51;;;;;;;;;;;10.00;99.90;;;;;;6212702;23;20113;-90
2023/03/14 10:43:19;;;;;;;;;;;10.10;99.90;;;;;;6212319;23;20347;-87
2023/03/14 10:45:51;;;;;;;;;;;10.10;99.90;;;;;;6212098;23;19958;-89
2023/03/14 10:48:24;;;;;;;;;;;10.20;99.90;;;;;;6211766;23;19982;-88
2023/03/14 10:50:54;;;;;;;;;;;10.30;99.90;;;;;;6211571;23;20477;-87
2023/03/14 10:53:20;;;;;;;;;;;10.20;99.90;;;;;;6185876;23;20325;-88
2023/03/14 10:55:45;;;;;;;;;;;10.10;99.90;;;;;;6185543;23;19903;-88
2023/03/14 10:58:32;;;;;;;;;;;10.00;99.90;;;;;;6211851;23;19934;-89
2023/03/14 11:01:34;;;;;;;;;;;10.30;99.90;;;;;;6219175;23;19900;-89
2023/03/14 11:04:22;;;;;;;;;;;10.60;99.90;;;;;;6045039;23;20045;-89
2023/03/14 11:06:48;;;;;;;;;;;10.70;99.90;;;;;;6213706;23;19944;-88
2023/03/14 11:09:32;;;;;;;;;;;10.70;99.90;;;;;;6212163;23;19933;-89
2023/03/14 11:12:16;;;;;;;;;;;10.70;99.90;;;;;;6186543;23;20400;-89
2023/03/14 11:14:45;;;;;;;;;;;10.60;99.90;;;;;;6185688;23;19946;-89
2023/03/14 11:17:20;;;;;;;;;;;10.70;99.90;;;;;;6212194;23;19903;-89
2023/03/14 11:20:04;;;;;;;;;;;10.90;99.90;;;;;;6184992;23;19907;-90
2023/03/14 11:22:40;;;;;;;;;;;11.10;99.90;;;;;;6186800;23;19906;-91
2023/03/14 11:25:13;;;;;;;;;;;10.70;99.90;;;;;;6186188;23;19900;-89
2023/03/14 11:27:59;;;;;;;;;;;10.60;99.90;;;;;;6212176;23;19904;-88
2023/03/14 11:30:36;;;;;;;;;;;10.80;99.90;;;;;;6211413;23;19906;-90
2023/03/14 11:33:02;;;;;;;;;;;10.60;99.90;;;;;;6212998;23;19911;-89
2023/03/14 11:35:34;;;;;;;;;;;10.80;99.90;;;;;;6212145;23;19982;-89
2023/03/14 11:38:18;;;;;;;;;;;11.10;99.90;;;;;;6213174;23;19983;-88
2023/03/14 11:40:44;;;;;;;;;;;11.10;99.90;;;;;;6211728;23;19903;-89
2023/03/14 11:43:15;;;;;;;;;;;11.10;99.90;;;;;;6211941;23;19900;-89
2023/03/14 11:45:42;;;;;;;;;;;11.10;99.90;;;;;;6211975;23;20240;-89
2023/03/14 11:48:26;;;;;;;;;;;11.10;99.90;;;;;;6211879;23;20237;-89
2023/03/14 11:50:52;;;;;;;;;;;11.20;99.90;;;;;;6184853;23;19899;-88
2023/03/14 11:53:21;;;;;;;;;;;11.20;99.90;;;;;;6184739;23;20296;-91
2023/03/14 11:55:46;;;;;;;;;;;11.40;99.90;;;;;;6211979;23;19931;-88
2023/03/14 11:58:26;;;;;;;;;;;11.30;99.90;;;;;;6211455;23;20344;-90
2023/03/14 12:00:53;;;;;;;;;;;11.30;99.90;;;;;;6211859;23;19899;-89
2023/03/14 12:03:21;;;;;;;;;;;11.30;99.90;;;;;;6211744;23;19907;-88
2023/03/14 12:05:47;;;;;;;;;;;11.30;99.90;;;;;;6211847;23;19950;-89
2023/03/14 12:08:21;;;;;;;;;;;11.30;99.90;;;;;;6185084;23;20276;-89
2023/03/14 12:10:46;;;;;;;;;;;11.30;99.90;;;;;;6185292;23;20313;-89
2023/03/14 12:13:13;;;;;;;;;;;11.20;99.90;;;;;;6185233;23;19911;-90
2023/03/14 12:15:40;;;;;;;;;;;11.10;99.90;;;;;;6185252;23;19952;-89
2023/03/14 12:18:18;;;;;;;;;;;11.20;99.90;;;;;;6211770;23;20383;-90
2023/03/14 12:20:51;;;;;;;;;;;11.50;99.90;;;;;;6211381;23;19908;-88
2023/03/14 12:23:16;;;;;;;;;;;11.80;99.90;;;;;;6211586;23;20241;-90
2023/03/14 12:25:42;;;;;;;;;;;12.10;99.90;;;;;;6209920;23;19900;-89
2023/03/14 12:28:20;;;;;;;;;;;12.40;99.90;;;;;;6209746;23;20218;-91
2023/03/14 12:30:46;;;;;;;;;;;12.40;99.90;;;;;;6211130;23;19975;-91
2023/03/14 12:33:20;;;;;;;;;;;12.10;99.90;;;;;;6211896;23;19939;-92
2023/03/14 12:35:45;;;;;;;;;;;12.30;99.90;;;;;;6211780;23;19911;-93
2023/03/14 12:38:11;;;;;;;;;;;12.40;99.90;;;;;;6211699;23;19904;-89
2023/03/14 12:40:39;;;;;;;;;;;12.40;99.90;;;;;;6184385;23;19958;-89
2023/03/14 12:43:23;;;;;;;;;;;12.60;99.90;;;;;;6186181;23;19969;-91
2023/03/14 12:46:07;;;;;;;;;;;12.60;99.90;;;;;;6212014;23;19911;-88
2023/03/14 12:48:32;;;;;;;;;;;12.00;99.90;;;;;;6212820;23;19978;-91
2023/03/14 12:51:11;;;;;;;;;;;11.60;99.90;;;;;;6210272;23;19989;-89
2023/03/14 12:53:45;;;;;;;;;;;11.50;99.90;;;;;;6184572;23;19907;-90
2023/03/14 12:56:37;;;;;;;;;;;11.20;99.90;;;;;;6211518;23;19911;-88
2023/03/14 12:59:14;;;;;;;;;;;11.30;99.90;;;;;;6129564;23;19903;-90
2023/03/14 13:01:56;;;;;;;;;;;11.50;99.90;;;;;;6184536;23;19962;-91
2023/03/14 13:04:30;;;;;;;;;;;11.90;99.90;;;;;;6212071;23;19931;-92
2023/03/14 13:06:59;;;;;;;;;;;11.90;99.90;;;;;;6211969;23;19934;-91
2023/03/14 13:09:34;;;;;;;;;;;11.90;99.90;;;;;;6184630;23;20347;-90
2023/03/14 13:12:02;;;;;;;;;;;12.00;99.90;;;;;;6186638;23;20379;-91
2023/03/14 13:14:30;;;;;;;;;;;11.80;99.90;;;;;;6185897;23;20082;-91
2023/03/14 13:16:55;;;;;;;;;;;11.60;99.90;;;;;;6212749;23;19900;-92
2023/03/14 13:19:25;;;;;;;;;;;11.30;99.90;;;;;;6186919;23;20241;-90
2023/03/14 13:21:51;;;;;;;;;;;11.00;99.90;;;;;;6213424;23;19958;-89
2023/03/14 13:24:23;;;;;;;;;;;10.90;99.90;;;;;;6185753;23;19899;-90
2023/03/14 13:26:48;;;;;;;;;;;11.10;99.90;;;;;;6213021;23;20015;-89
2023/03/14 13:29:16;;;;;;;;;;;11.10;99.90;;;;;;6213554;23;20325;-89
2023/03/14 13:31:49;;;;;;;;;;;11.20;99.90;;;;;;6186680;23;19900;-90
2023/03/14 13:34:14;;;;;;;;;;;11.00;99.90;;;;;;6186160;23;19914;-90
2023/03/14 13:36:40;;;;;;;;;;;10.90;99.90;;;;;;6213469;23;19900;-91
2023/03/14 13:39:19;;;;;;;;;;;10.60;99.90;;;;;;6214353;23;19947;-90
2023/03/14 13:41:45;;;;;;;;;;;10.70;99.90;;;;;;6186874;23;19900;-90
2023/03/14 13:44:22;;;;;;;;;;;11.10;99.90;;;;;;6186152;23;19911;-89
2023/03/14 13:46:48;;;;;;;;;;;11.20;99.90;;;;;;6187025;23;19899;-92
2023/03/14 13:49:20;;;;;;;;;;;11.20;99.90;;;;;;6213900;23;19946;-89
2023/03/14 13:51:45;;;;;;;;;;;11.40;99.90;;;;;;6190400;23;19907;-88
2023/03/14 13:54:15;;;;;;;;;;;11.60;99.90;;;;;;6194155;23;19912;-89
2023/03/14 13:56:41;;;;;;;;;;;11.70;99.90;;;;;;6199802;23;19883;-88
2023/03/14 13:59:26;;;;;;;;;;;11.60;99.90;;;;;;6200109;23;19907;-91
2023/03/14 14:01:53;;;;;;;;;;;11.90;99.90;;;;;;6186872;23;19923;-91
2023/03/14 14:04:21;;;;;;;;;;;11.60;99.90;;;;;;6186109;23;19942;-90
2023/03/14 14:06:52;;;;;;;;;;;11.40;99.90;;;;;;6186586;23;19900;-89
2023/03/14 14:09:20;;;;;;;;;;;11.20;99.90;;;;;;6186262;23;19907;-89
2023/03/14 14:12:06;;;;;;;;;;;11.10;99.90;;;;;;6186135;23;19900;-89
2023/03/14 14:14:38;;;;;;;;;;;11.10;99.90;;;;;;6184739;23;20218;-90
2023/03/14 14:17:06;;;;;;;;;;;11.30;99.90;;;;;;6213596;23;20325;-90
2023/03/14 14:19:33;;;;;;;;;;;11.60;99.90;;;;;;6186151;23;19962;-89
2023/03/14 14:21:58;;;;;;;;;;;11.40;99.90;;;;;;6212228;23;20252;-90
2023/03/14 14:24:27;;;;;;;;;;;11.30;99.90;;;;;;6211978;23;19899;-89
2023/03/14 14:26:54;;;;;;;;;;;11.30;99.90;;;;;;6212575;23;19899;-90
2023/03/14 14:29:27;;;;;;;;;;;11.40;99.90;;;;;;6212864;23;20264;-89